sensor_id;sensor_type;location;lat;lon;timestamp;pressure;altitude;pressure_sealevel;temperature;humidity
20077;BME280;12348;42.710;23.378;2022-09-16T00:00:56;94612.44;;;20.30;89.86
20077;BME280;12348;42.710;23.378;2022-09-16T00:03:23;94605.81;;;20.31;88.79
20077;BME280;12348;42.710;23.378;2022-09-16T00:05:51;94611.78;;;20.37;88.98
20077;BME280;12348;42.710;23.378;2022-09-16T00:08:19;94602.97;;;20.24;89.79
20077;BME280;12348;42.710;23.378;2022-09-16T00:10:46;94619.38;;;20.24;90.06
20077;BME280;12348;42.710;23.378;2022-09-16T00:13:14;94614.63;;;20.21;89.03
20077;BME280;12348;42.710;23.378;2022-09-16T00:15:43;94613.91;;;20.24;91.43
20077;BME280;12348;42.710;23.378;2022-09-16T00:18:11;94620.31;;;20.13;89.76
20077;BME280;12348;42.710;23.378;2022-09-16T00:20:42;94625.38;;;20.10;91.28
20077;BME280;12348;42.710;23.378;2022-09-16T00:23:09;94616.06;;;20.15;91.63
20077;BME280;12348;42.710;23.378;2022-09-16T00:25:36;94616.78;;;20.12;90.63
20077;BME280;12348;42.710;23.378;2022-09-16T00:28:03;94612.72;;;20.02;92.40
20077;BME280;12348;42.710;23.378;2022-09-16T00:30:29;94613.78;;;19.98;94.09
20077;BME280;12348;42.710;23.378;2022-09-16T00:32:58;94607.13;;;19.95;93.06
20077;BME280;12348;42.710;23.378;2022-09-16T00:35:24;94600.94;;;19.98;93.13
20077;BME280;12348;42.710;23.378;2022-09-16T00:37:51;94606.81;;;20.00;92.58
20077;BME280;12348;42.710;23.378;2022-09-16T00:40:18;94598.84;;;19.92;92.58
20077;BME280;12348;42.710;23.378;2022-09-16T00:42:45;94604.72;;;19.94;93.22
20077;BME280;12348;42.710;23.378;2022-09-16T00:45:16;94602.38;;;19.92;93.40
20077;BME280;12348;42.710;23.378;2022-09-16T00:47:46;94604.66;;;19.90;93.95
20077;BME280;12348;42.710;23.378;2022-09-16T00:50:20;94605.41;;;19.87;93.67
20077;BME280;12348;42.710;23.378;2022-09-16T00:52:48;94608.22;;;19.91;95.07
20077;BME280;12348;42.710;23.378;2022-09-16T00:55:20;94617.84;;;19.84;95.62
20077;BME280;12348;42.710;23.378;2022-09-16T00:57:49;94609.66;;;19.84;94.22
20077;BME280;12348;42.710;23.378;2022-09-16T01:00:17;94617.25;;;19.75;96.39
20077;BME280;12348;42.710;23.378;2022-09-16T01:02:44;94616.28;;;19.83;97.29
20077;BME280;12348;42.710;23.378;2022-09-16T01:05:16;94607.72;;;19.85;96.33
20077;BME280;12348;42.710;23.378;2022-09-16T01:07:46;94622.88;;;19.82;96.50
20077;BME280;12348;42.710;23.378;2022-09-16T01:10:15;94627.06;;;19.76;96.58
20077;BME280;12348;42.710;23.378;2022-09-16T01:12:45;94635.91;;;19.70;97.82
20077;BME280;12348;42.710;23.378;2022-09-16T01:15:13;94644.41;;;19.65;98.37
20077;BME280;12348;42.710;23.378;2022-09-16T01:17:55;94651.69;;;19.60;98.02
20077;BME280;12348;42.710;23.378;2022-09-16T01:20:54;94641.91;;;19.59;99.12
20077;BME280;12348;42.710;23.378;2022-09-16T01:32:32;94628.69;;;19.42;99.17
20077;BME280;12348;42.710;23.378;2022-09-16T01:35:06;94616.81;;;19.34;100.00
20077;BME280;12348;42.710;23.378;2022-09-16T01:37:43;94617.69;;;19.38;99.90
20077;BME280;12348;42.710;23.378;2022-09-16T01:40:15;94624.50;;;19.48;100.00
20077;BME280;12348;42.710;23.378;2022-09-16T01:42:50;94616.03;;;19.53;98.75
20077;BME280;12348;42.710;23.378;2022-09-16T01:45:22;94627.38;;;19.55;99.43
20077;BME280;12348;42.710;23.378;2022-09-16T01:48:00;94625.28;;;19.65;100.00
20077;BME280;12348;42.710;23.378;2022-09-16T01:50:32;94637.16;;;19.56;100.00
20077;BME280;12348;42.710;23.378;2022-09-16T01:53:09;94633.72;;;19.59;100.00
20077;BME280;12348;42.710;23.378;2022-09-16T01:55:42;94627.56;;;19.63;100.00
20077;BME280;12348;42.710;23.378;2022-09-16T01:58:16;94625.63;;;19.63;100.00
20077;BME280;12348;42.710;23.378;2022-09-16T02:00:44;94625.63;;;19.63;100.00
20077;BME280;12348;42.710;23.378;2022-09-16T02:03:18;94617.41;;;19.63;100.00
20077;BME280;12348;42.710;23.378;2022-09-16T02:05:50;94614.97;;;19.58;100.00
20077;BME280;12348;42.710;23.378;2022-09-16T02:08:21;94602.75;;;19.71;99.50
20077;BME280;12348;42.710;23.378;2022-09-16T02:10:53;94611.00;;;19.75;98.78
20077;BME280;12348;42.710;23.378;2022-09-16T02:13:25;94611.38;;;19.73;98.68
20077;BME280;12348;42.710;23.378;2022-09-16T02:15:57;94596.56;;;19.74;99.95
20077;BME280;12348;42.710;23.378;2022-09-16T02:18:28;94606.28;;;19.72;100.00
20077;BME280;12348;42.710;23.378;2022-09-16T02:20:57;94601.09;;;19.67;100.00
20077;BME280;12348;42.710;23.378;2022-09-16T02:23:30;94601.00;;;19.44;100.00
20077;BME280;12348;42.710;23.378;2022-09-16T02:25:58;94605.38;;;19.48;100.00
20077;BME280;12348;42.710;23.378;2022-09-16T02:28:29;94608.50;;;19.47;100.00
20077;BME280;12348;42.710;23.378;2022-09-16T02:31:00;94601.16;;;19.31;100.00
20077;BME280;12348;42.710;23.378;2022-09-16T02:33:33;94607.25;;;19.25;100.00
20077;BME280;12348;42.710;23.378;2022-09-16T02:36:03;94613.13;;;18.92;100.00
20077;BME280;12348;42.710;23.378;2022-09-16T02:38:34;94616.03;;;18.67;100.00
20077;BME280;12348;42.710;23.378;2022-09-16T02:41:03;94612.25;;;18.56;100.00
20077;BME280;12348;42.710;23.378;2022-09-16T02:43:31;94609.63;;;18.28;100.00
20077;BME280;12348;42.710;23.378;2022-09-16T02:46:05;94613.94;;;18.29;100.00
20077;BME280;12348;42.710;23.378;2022-09-16T02:48:47;94623.72;;;18.30;100.00
20077;BME280;12348;42.710;23.378;2022-09-16T02:51:28;94620.44;;;18.08;100.00
20077;BME280;12348;42.710;23.378;2022-09-16T02:54:00;94618.13;;;17.95;100.00
20077;BME280;12348;42.710;23.378;2022-09-16T02:56:32;94614.06;;;17.88;100.00
20077;BME280;12348;42.710;23.378;2022-09-16T02:59:02;94617.63;;;18.05;100.00
20077;BME280;12348;42.710;23.378;2022-09-16T03:01:33;94637.31;;;18.14;100.00
20077;BME280;12348;42.710;23.378;2022-09-16T03:04:03;94635.31;;;18.27;100.00
20077;BME280;12348;42.710;23.378;2022-09-16T03:06:30;94628.31;;;18.41;100.00
20077;BME280;12348;42.710;23.378;2022-09-16T03:09:02;94614.66;;;18.57;100.00
20077;BME280;12348;42.710;23.378;2022-09-16T03:12:06;94626.16;;;18.66;100.00
20077;BME280;12348;42.710;23.378;2022-09-16T03:17:37;94651.09;;;18.81;100.00
20077;BME280;12348;42.710;23.378;2022-09-16T03:20:15;94657.94;;;18.91;100.00
20077;BME280;12348;42.710;23.378;2022-09-16T03:22:49;94657.66;;;18.96;100.00
20077;BME280;12348;42.710;23.378;2022-09-16T03:25:27;94670.41;;;19.07;100.00
20077;BME280;12348;42.710;23.378;2022-09-16T03:28:04;94666.56;;;19.08;100.00
20077;BME280;12348;42.710;23.378;2022-09-16T03:30:37;94665.59;;;19.01;100.00
20077;BME280;12348;42.710;23.378;2022-09-16T03:33:15;94656.28;;;18.86;100.00
20077;BME280;12348;42.710;23.378;2022-09-16T03:35:47;94645.22;;;18.79;100.00
20077;BME280;12348;42.710;23.378;2022-09-16T03:38:16;94635.66;;;18.88;100.00
20077;BME280;12348;42.710;23.378;2022-09-16T03:40:46;94646.88;;;18.83;100.00
20077;BME280;12348;42.710;23.378;2022-09-16T03:43:15;94638.22;;;18.81;100.00
20077;BME280;12348;42.710;23.378;2022-09-16T03:45:42;94639.84;;;18.82;100.00
20077;BME280;12348;42.710;23.378;2022-09-16T03:48:10;94629.78;;;18.71;100.00
20077;BME280;12348;42.710;23.378;2022-09-16T03:50:38;94627.59;;;18.60;100.00
20077;BME280;12348;42.710;23.378;2022-09-16T03:53:06;94641.38;;;18.52;100.00
20077;BME280;12348;42.710;23.378;2022-09-16T03:55:33;94620.53;;;18.44;100.00
20077;BME280;12348;42.710;23.378;2022-09-16T03:58:00;94617.81;;;18.44;100.00
20077;BME280;12348;42.710;23.378;2022-09-16T04:00:27;94625.22;;;18.43;100.00
20077;BME280;12348;42.710;23.378;2022-09-16T04:02:54;94629.88;;;18.27;100.00
20077;BME280;12348;42.710;23.378;2022-09-16T04:05:22;94643.75;;;18.22;100.00
20077;BME280;12348;42.710;23.378;2022-09-16T04:07:49;94647.34;;;18.26;100.00
20077;BME280;12348;42.710;23.378;2022-09-16T04:10:18;94655.81;;;18.36;100.00
20077;BME280;12348;42.710;23.378;2022-09-16T04:12:44;94651.06;;;18.49;100.00
20077;BME280;12348;42.710;23.378;2022-09-16T04:15:11;94648.34;;;18.49;100.00
20077;BME280;12348;42.710;23.378;2022-09-16T04:17:38;94651.06;;;18.65;100.00
20077;BME280;12348;42.710;23.378;2022-09-16T04:20:06;94647.06;;;18.75;100.00
20077;BME280;12348;42.710;23.378;2022-09-16T04:22:33;94647.56;;;18.80;100.00
20077;BME280;12348;42.710;23.378;2022-09-16T04:25:00;94660.84;;;18.98;100.00
20077;BME280;12348;42.710;23.378;2022-09-16T04:27:28;94672.81;;;18.93;100.00
20077;BME280;12348;42.710;23.378;2022-09-16T04:29:55;94672.09;;;18.96;100.00
20077;BME280;12348;42.710;23.378;2022-09-16T04:32:21;94663.66;;;19.01;100.00
20077;BME280;12348;42.710;23.378;2022-09-16T04:34:48;94663.97;;;19.16;100.00
20077;BME280;12348;42.710;23.378;2022-09-16T04:37:15;94668.72;;;19.19;100.00
20077;BME280;12348;42.710;23.378;2022-09-16T04:39:42;94671.28;;;19.27;100.00
20077;BME280;12348;42.710;23.378;2022-09-16T04:42:09;94661.72;;;19.37;100.00
20077;BME280;12348;42.710;23.378;2022-09-16T04:44:39;94671.88;;;19.56;100.00
20077;BME280;12348;42.710;23.378;2022-09-16T04:47:06;94674.72;;;19.79;100.00
20077;BME280;12348;42.710;23.378;2022-09-16T04:49:33;94682.19;;;20.01;100.00
20077;BME280;12348;42.710;23.378;2022-09-16T04:52:00;94685.28;;;20.19;100.00
20077;BME280;12348;42.710;23.378;2022-09-16T04:54:27;94678.09;;;20.53;100.00
20077;BME280;12348;42.710;23.378;2022-09-16T04:56:53;94679.25;;;20.98;100.00
20077;BME280;12348;42.710;23.378;2022-09-16T04:59:22;94680.66;;;21.38;94.62
20077;BME280;12348;42.710;23.378;2022-09-16T05:01:50;94680.25;;;21.36;96.38
20077;BME280;12348;42.710;23.378;2022-09-16T05:04:16;94669.84;;;22.09;90.30
20077;BME280;12348;42.710;23.378;2022-09-16T05:06:43;94667.72;;;22.29;86.73
20077;BME280;12348;42.710;23.378;2022-09-16T05:09:11;94654.66;;;22.15;84.07
20077;BME280;12348;42.710;23.378;2022-09-16T05:11:39;94655.06;;;22.17;84.05
20077;BME280;12348;42.710;23.378;2022-09-16T05:14:09;94655.84;;;22.99;77.56
20077;BME280;12348;42.710;23.378;2022-09-16T05:16:38;94648.63;;;24.16;72.27
20077;BME280;12348;42.710;23.378;2022-09-16T05:19:07;94655.50;;;25.29;63.07
20077;BME280;12348;42.710;23.378;2022-09-16T05:21:36;94653.41;;;25.94;58.81
20077;BME280;12348;42.710;23.378;2022-09-16T05:24:05;94650.22;;;26.76;57.86
20077;BME280;12348;42.710;23.378;2022-09-16T05:26:34;94645.09;;;27.68;52.22
20077;BME280;12348;42.710;23.378;2022-09-16T05:29:02;94643.41;;;28.97;48.91
20077;BME280;12348;42.710;23.378;2022-09-16T05:31:31;94648.00;;;30.77;42.26
20077;BME280;12348;42.710;23.378;2022-09-16T05:33:59;94644.75;;;31.93;38.87
20077;BME280;12348;42.710;23.378;2022-09-16T05:36:31;94649.41;;;31.96;37.49
20077;BME280;12348;42.710;23.378;2022-09-16T05:38:58;94640.22;;;31.83;36.73
20077;BME280;12348;42.710;23.378;2022-09-16T05:41:25;94649.09;;;32.36;36.09
20077;BME280;12348;42.710;23.378;2022-09-16T05:43:52;94644.81;;;32.61;36.11
20077;BME280;12348;42.710;23.378;2022-09-16T05:46:22;94637.59;;;31.47;37.89
20077;BME280;12348;42.710;23.378;2022-09-16T05:48:49;94635.31;;;30.40;40.56
20077;BME280;12348;42.710;23.378;2022-09-16T05:51:18;94630.53;;;30.21;41.48
20077;BME280;12348;42.710;23.378;2022-09-16T05:53:47;94630.44;;;30.44;41.37
20077;BME280;12348;42.710;23.378;2022-09-16T05:56:15;94638.53;;;30.18;42.49
20077;BME280;12348;42.710;23.378;2022-09-16T05:58:43;94641.50;;;30.64;40.87
20077;BME280;12348;42.710;23.378;2022-09-16T06:01:11;94634.88;;;29.82;43.68
20077;BME280;12348;42.710;23.378;2022-09-16T06:03:41;94638.22;;;30.69;42.06
20077;BME280;12348;42.710;23.378;2022-09-16T06:06:11;94630.09;;;30.58;41.86
20077;BME280;12348;42.710;23.378;2022-09-16T06:08:39;94639.50;;;30.48;41.84
20077;BME280;12348;42.710;23.378;2022-09-16T06:11:09;94636.63;;;31.21;41.55
20077;BME280;12348;42.710;23.378;2022-09-16T06:13:36;94645.13;;;32.50;38.43
20077;BME280;12348;42.710;23.378;2022-09-16T06:16:05;94635.56;;;32.76;40.03
20077;BME280;12348;42.710;23.378;2022-09-16T06:18:33;94639.63;;;33.83;37.82
20077;BME280;12348;42.710;23.378;2022-09-16T06:21:04;94642.38;;;33.74;37.52
20077;BME280;12348;42.710;23.378;2022-09-16T06:23:31;94634.44;;;34.82;33.71
20077;BME280;12348;42.710;23.378;2022-09-16T06:25:59;94632.06;;;33.23;36.35
20077;BME280;12348;42.710;23.378;2022-09-16T06:28:27;94627.72;;;31.75;37.73
20077;BME280;12348;42.710;23.378;2022-09-16T06:31:00;94631.59;;;31.32;39.67
20077;BME280;12348;42.710;23.378;2022-09-16T06:33:28;94629.69;;;30.96;40.32
20077;BME280;12348;42.710;23.378;2022-09-16T06:35:55;94637.00;;;30.34;43.86
20077;BME280;12348;42.710;23.378;2022-09-16T06:38:22;94626.84;;;29.20;49.07
20077;BME280;12348;42.710;23.378;2022-09-16T06:40:49;94630.38;;;30.08;48.70
20077;BME280;12348;42.710;23.378;2022-09-16T06:43:16;94636.00;;;30.80;47.17
20077;BME280;12348;42.710;23.378;2022-09-16T06:45:44;94629.19;;;29.89;51.00
20077;BME280;12348;42.710;23.378;2022-09-16T06:48:11;94640.00;;;28.32;57.33
20077;BME280;12348;42.710;23.378;2022-09-16T06:50:38;94641.09;;;28.07;58.88
20077;BME280;12348;42.710;23.378;2022-09-16T06:53:05;94641.94;;;27.66;57.14
20077;BME280;12348;42.710;23.378;2022-09-16T06:55:32;94641.41;;;28.47;55.18
20077;BME280;12348;42.710;23.378;2022-09-16T06:57:59;94637.78;;;30.71;48.33
20077;BME280;12348;42.710;23.378;2022-09-16T07:00:25;94634.91;;;31.89;42.83
20077;BME280;12348;42.710;23.378;2022-09-16T07:02:53;94635.66;;;33.11;39.47
20077;BME280;12348;42.710;23.378;2022-09-16T07:05:20;94644.63;;;33.66;36.67
20077;BME280;12348;42.710;23.378;2022-09-16T07:07:47;94638.09;;;33.47;35.18
20077;BME280;12348;42.710;23.378;2022-09-16T07:10:14;94650.53;;;32.95;35.77
20077;BME280;12348;42.710;23.378;2022-09-16T07:12:41;94647.31;;;33.57;34.96
20077;BME280;12348;42.710;23.378;2022-09-16T07:15:08;94653.16;;;32.86;34.87
20077;BME280;12348;42.710;23.378;2022-09-16T07:17:35;94641.66;;;32.71;36.87
20077;BME280;12348;42.710;23.378;2022-09-16T07:20:04;94640.75;;;33.98;34.17
20077;BME280;12348;42.710;23.378;2022-09-16T07:22:31;94643.28;;;34.49;32.74
20077;BME280;12348;42.710;23.378;2022-09-16T07:24:58;94641.16;;;34.10;33.33
20077;BME280;12348;42.710;23.378;2022-09-16T07:27:25;94636.97;;;34.36;32.77
20077;BME280;12348;42.710;23.378;2022-09-16T07:29:52;94631.44;;;35.76;30.66
20077;BME280;12348;42.710;23.378;2022-09-16T07:32:20;94636.25;;;35.57;29.94
20077;BME280;12348;42.710;23.378;2022-09-16T07:34:47;94638.06;;;34.61;32.27
20077;BME280;12348;42.710;23.378;2022-09-16T07:37:15;94630.16;;;34.68;31.66
20077;BME280;12348;42.710;23.378;2022-09-16T07:39:43;94628.50;;;36.16;30.26
20077;BME280;12348;42.710;23.378;2022-09-16T07:42:10;94630.41;;;36.71;29.19
20077;BME280;12348;42.710;23.378;2022-09-16T07:44:37;94618.84;;;35.99;30.28
20077;BME280;12348;42.710;23.378;2022-09-16T07:47:04;94605.59;;;35.72;30.59
20077;BME280;12348;42.710;23.378;2022-09-16T07:49:31;94609.88;;;35.36;31.13
20077;BME280;12348;42.710;23.378;2022-09-16T07:51:58;94603.03;;;34.87;31.81
20077;BME280;12348;42.710;23.378;2022-09-16T07:54:27;94605.31;;;36.67;29.99
20077;BME280;12348;42.710;23.378;2022-09-16T07:56:53;94619.72;;;37.35;28.53
20077;BME280;12348;42.710;23.378;2022-09-16T07:59:20;94614.72;;;36.46;29.13
20077;BME280;12348;42.710;23.378;2022-09-16T08:01:47;94609.16;;;37.54;27.10
20077;BME280;12348;42.710;23.378;2022-09-16T08:04:15;94606.72;;;38.10;26.67
20077;BME280;12348;42.710;23.378;2022-09-16T08:06:42;94591.72;;;36.14;28.67
20077;BME280;12348;42.710;23.378;2022-09-16T08:09:09;94594.66;;;36.38;29.63
20077;BME280;12348;42.710;23.378;2022-09-16T08:11:37;94586.59;;;34.98;30.36
20077;BME280;12348;42.710;23.378;2022-09-16T08:14:04;94588.16;;;35.67;29.29
20077;BME280;12348;42.710;23.378;2022-09-16T08:16:31;94585.50;;;35.73;29.62
20077;BME280;12348;42.710;23.378;2022-09-16T08:18:58;94592.56;;;34.16;30.83
20077;BME280;12348;42.710;23.378;2022-09-16T08:21:26;94581.06;;;33.92;32.52
20077;BME280;12348;42.710;23.378;2022-09-16T08:23:53;94580.91;;;35.11;30.63
20077;BME280;12348;42.710;23.378;2022-09-16T08:26:21;94578.59;;;35.28;29.41
20077;BME280;12348;42.710;23.378;2022-09-16T08:28:50;94579.59;;;34.54;30.55
20077;BME280;12348;42.710;23.378;2022-09-16T08:31:17;94582.78;;;33.55;32.05
20077;BME280;12348;42.710;23.378;2022-09-16T08:33:45;94581.63;;;34.31;31.69
20077;BME280;12348;42.710;23.378;2022-09-16T08:36:14;94581.47;;;34.04;31.09
20077;BME280;12348;42.710;23.378;2022-09-16T08:38:43;94578.28;;;34.77;30.63
20077;BME280;12348;42.710;23.378;2022-09-16T08:41:31;94566.72;;;33.68;31.98
20077;BME280;12348;42.710;23.378;2022-09-16T08:44:17;94562.47;;;33.54;32.23
20077;BME280;12348;42.710;23.378;2022-09-16T08:46:51;94562.53;;;33.64;31.81
20077;BME280;12348;42.710;23.378;2022-09-16T08:49:25;94558.13;;;33.06;32.24
20077;BME280;12348;42.710;23.378;2022-09-16T08:51:57;94556.75;;;33.11;32.68
20077;BME280;12348;42.710;23.378;2022-09-16T08:54:27;94562.69;;;33.13;32.96
20077;BME280;12348;42.710;23.378;2022-09-16T08:57:00;94566.78;;;32.19;34.76
20077;BME280;12348;42.710;23.378;2022-09-16T08:59:32;94567.22;;;31.75;35.41
20077;BME280;12348;42.710;23.378;2022-09-16T09:02:14;94563.19;;;31.76;35.72
20077;BME280;12348;42.710;23.378;2022-09-16T09:04:44;94557.31;;;31.45;36.27
20077;BME280;12348;42.710;23.378;2022-09-16T09:07:16;94555.97;;;31.04;36.84
20077;BME280;12348;42.710;23.378;2022-09-16T09:09:58;94556.19;;;30.45;37.72
20077;BME280;12348;42.710;23.378;2022-09-16T09:12:33;94559.56;;;30.16;39.46
20077;BME280;12348;42.710;23.378;2022-09-16T09:15:17;94555.56;;;29.81;40.29
20077;BME280;12348;42.710;23.378;2022-09-16T09:17:56;94568.13;;;29.45;41.60
20077;BME280;12348;42.710;23.378;2022-09-16T09:20:35;94568.25;;;29.38;41.24
20077;BME280;12348;42.710;23.378;2022-09-16T09:23:16;94560.00;;;29.58;41.38
20077;BME280;12348;42.710;23.378;2022-09-16T09:25:50;94558.97;;;29.68;41.00
20077;BME280;12348;42.710;23.378;2022-09-16T09:31:24;94552.91;;;29.54;42.92
20077;BME280;12348;42.710;23.378;2022-09-16T09:34:05;94552.72;;;29.84;42.34
20077;BME280;12348;42.710;23.378;2022-09-16T09:36:44;94549.75;;;30.11;41.76
20077;BME280;12348;42.710;23.378;2022-09-16T09:39:32;94552.25;;;30.26;40.93
20077;BME280;12348;42.710;23.378;2022-09-16T09:42:07;94555.59;;;30.17;41.45
20077;BME280;12348;42.710;23.378;2022-09-16T09:44:47;94550.50;;;29.56;42.40
20077;BME280;12348;42.710;23.378;2022-09-16T09:47:22;94559.22;;;29.58;42.28
20077;BME280;12348;42.710;23.378;2022-09-16T09:49:54;94558.97;;;29.68;42.20
20077;BME280;12348;42.710;23.378;2022-09-16T09:52:26;94566.97;;;29.66;43.21
20077;BME280;12348;42.710;23.378;2022-09-16T09:54:54;94564.97;;;29.23;44.15
20077;BME280;12348;42.710;23.378;2022-09-16T09:57:27;94562.84;;;29.31;45.72
20077;BME280;12348;42.710;23.378;2022-09-16T10:00:01;94562.91;;;29.28;44.49
20077;BME280;12348;42.710;23.378;2022-09-16T10:02:31;94565.53;;;29.15;45.94
20077;BME280;12348;42.710;23.378;2022-09-16T10:04:59;94583.31;;;29.17;45.91
20077;BME280;12348;42.710;23.378;2022-09-16T10:07:26;94585.25;;;29.20;47.17
20077;BME280;12348;42.710;23.378;2022-09-16T10:09:56;94597.72;;;29.52;47.26
20077;BME280;12348;42.710;23.378;2022-09-16T10:12:28;94605.38;;;29.01;47.99
20077;BME280;12348;42.710;23.378;2022-09-16T10:14:55;94616.81;;;28.49;49.71
20077;BME280;12348;42.710;23.378;2022-09-16T10:17:23;94628.47;;;28.06;53.10
20077;BME280;12348;42.710;23.378;2022-09-16T10:19:57;94643.75;;;27.46;56.97
20077;BME280;12348;42.710;23.378;2022-09-16T10:22:26;94653.66;;;26.91;61.20
20077;BME280;12348;42.710;23.378;2022-09-16T10:24:55;94669.75;;;26.44;65.10
20077;BME280;12348;42.710;23.378;2022-09-16T10:27:24;94702.28;;;25.97;69.26
20077;BME280;12348;42.710;23.378;2022-09-16T10:30:13;94738.59;;;25.46;74.51
20077;BME280;12348;42.710;23.378;2022-09-16T10:32:49;94754.88;;;24.38;89.58
20077;BME280;12348;42.710;23.378;2022-09-16T10:35:21;94773.63;;;23.53;100.00
20077;BME280;12348;42.710;23.378;2022-09-16T10:37:52;94781.00;;;22.63;100.00
20077;BME280;12348;42.710;23.378;2022-09-16T10:40:20;94817.13;;;22.09;100.00
20077;BME280;12348;42.710;23.378;2022-09-16T10:42:49;94813.81;;;21.69;100.00
20077;BME280;12348;42.710;23.378;2022-09-16T10:45:22;94816.69;;;21.53;100.00
20077;BME280;12348;42.710;23.378;2022-09-16T10:47:53;94824.81;;;21.46;100.00
20077;BME280;12348;42.710;23.378;2022-09-16T10:50:22;94816.78;;;21.34;100.00
20077;BME280;12348;42.710;23.378;2022-09-16T10:52:49;94793.94;;;21.26;100.00
20077;BME280;12348;42.710;23.378;2022-09-16T10:55:23;94807.97;;;21.44;100.00
20077;BME280;12348;42.710;23.378;2022-09-16T10:57:50;94802.03;;;21.42;100.00
20077;BME280;12348;42.710;23.378;2022-09-16T11:00:19;94789.38;;;21.34;100.00
20077;BME280;12348;42.710;23.378;2022-09-16T11:03:17;94752.28;;;21.37;100.00
20077;BME280;12348;42.710;23.378;2022-09-16T11:06:00;94725.28;;;21.39;100.00
20077;BME280;12348;42.710;23.378;2022-09-16T11:08:45;94716.09;;;21.54;100.00
20077;BME280;12348;42.710;23.378;2022-09-16T11:11:35;94707.31;;;21.68;100.00
20077;BME280;12348;42.710;23.378;2022-09-16T11:14:12;94687.38;;;21.71;100.00
20077;BME280;12348;42.710;23.378;2022-09-16T11:17:11;94680.50;;;21.84;100.00
20077;BME280;12348;42.710;23.378;2022-09-16T11:19:58;94670.78;;;22.20;100.00
20077;BME280;12348;42.710;23.378;2022-09-16T11:22:37;94663.06;;;22.74;100.00
20077;BME280;12348;42.710;23.378;2022-09-16T11:25:24;94648.63;;;24.05;100.00
20077;BME280;12348;42.710;23.378;2022-09-16T11:28:00;94647.97;;;24.48;100.00
20077;BME280;12348;42.710;23.378;2022-09-16T11:30:36;94634.94;;;25.73;100.00
20077;BME280;12348;42.710;23.378;2022-09-16T11:33:15;94628.00;;;26.28;99.64
20077;BME280;12348;42.710;23.378;2022-09-16T11:38:48;94612.19;;;24.90;100.00
20077;BME280;12348;42.710;23.378;2022-09-16T11:41:22;94610.63;;;25.22;100.00
20077;BME280;12348;42.710;23.378;2022-09-16T11:44:09;94604.72;;;25.05;100.00
20077;BME280;12348;42.710;23.378;2022-09-16T11:46:48;94600.81;;;24.78;100.00
20077;BME280;12348;42.710;23.378;2022-09-16T11:49:28;94593.72;;;24.77;100.00
20077;BME280;12348;42.710;23.378;2022-09-16T11:52:05;94599.19;;;25.34;100.00
20077;BME280;12348;42.710;23.378;2022-09-16T11:54:53;94597.13;;;25.63;100.00
20077;BME280;12348;42.710;23.378;2022-09-16T11:57:28;94593.34;;;26.20;92.35
20077;BME280;12348;42.710;23.378;2022-09-16T11:59:59;94592.22;;;26.06;96.49
20077;BME280;12348;42.710;23.378;2022-09-16T12:02:33;94568.81;;;26.32;97.49
20077;BME280;12348;42.710;23.378;2022-09-16T12:05:29;94573.97;;;26.30;84.04
20077;BME280;12348;42.710;23.378;2022-09-16T12:08:03;94596.00;;;26.97;84.94
20077;BME280;12348;42.710;23.378;2022-09-16T12:10:37;94606.03;;;27.21;87.21
20077;BME280;12348;42.710;23.378;2022-09-16T12:13:09;94602.81;;;27.30;83.84
20077;BME280;12348;42.710;23.378;2022-09-16T12:15:43;94603.63;;;27.27;84.12
20077;BME280;12348;42.710;23.378;2022-09-16T12:18:14;94610.88;;;27.06;86.08
20077;BME280;12348;42.710;23.378;2022-09-16T12:20:45;94604.94;;;26.63;85.67
20077;BME280;12348;42.710;23.378;2022-09-16T12:23:17;94597.22;;;26.37;85.36
20077;BME280;12348;42.710;23.378;2022-09-16T12:25:58;94610.47;;;25.90;87.72
20077;BME280;12348;42.710;23.378;2022-09-16T12:28:30;94602.88;;;26.08;87.50
20077;BME280;12348;42.710;23.378;2022-09-16T12:31:05;94604.53;;;25.87;86.79
20077;BME280;12348;42.710;23.378;2022-09-16T12:33:39;94600.66;;;25.67;86.41
20077;BME280;12348;42.710;23.378;2022-09-16T12:36:11;94602.34;;;25.36;88.38
20077;BME280;12348;42.710;23.378;2022-09-16T12:38:40;94615.38;;;25.21;91.25
20077;BME280;12348;42.710;23.378;2022-09-16T12:41:27;94610.63;;;25.18;91.37
20077;BME280;12348;42.710;23.378;2022-09-16T12:44:19;94614.53;;;25.24;91.31
20077;BME280;12348;42.710;23.378;2022-09-16T12:47:04;94623.25;;;24.83;93.78
20077;BME280;12348;42.710;23.378;2022-09-16T12:49:52;94627.97;;;24.69;97.74
20077;BME280;12348;42.710;23.378;2022-09-16T12:52:26;94645.59;;;24.50;100.00
20077;BME280;12348;42.710;23.378;2022-09-16T12:55:34;94653.50;;;24.58;100.00
20077;BME280;12348;42.710;23.378;2022-09-16T12:58:38;94654.22;;;24.37;100.00
20077;BME280;12348;42.710;23.378;2022-09-16T13:01:16;94668.69;;;24.13;100.00
20077;BME280;12348;42.710;23.378;2022-09-16T13:03:47;94677.59;;;23.81;100.00
20077;BME280;12348;42.710;23.378;2022-09-16T13:06:22;94694.97;;;24.00;100.00
20077;BME280;12348;42.710;23.378;2022-09-16T13:08:50;94693.59;;;23.65;100.00
20077;BME280;12348;42.710;23.378;2022-09-16T13:11:20;94700.84;;;23.32;100.00
20077;BME280;12348;42.710;23.378;2022-09-16T13:13:51;94708.78;;;22.93;100.00
20077;BME280;12348;42.710;23.378;2022-09-16T13:16:30;94706.03;;;22.59;100.00
20077;BME280;12348;42.710;23.378;2022-09-16T13:19:24;94712.47;;;22.33;100.00
20077;BME280;12348;42.710;23.378;2022-09-16T13:21:57;94721.41;;;21.96;100.00
20077;BME280;12348;42.710;23.378;2022-09-16T13:24:29;94719.53;;;21.74;100.00
20077;BME280;12348;42.710;23.378;2022-09-16T13:26:57;94715.22;;;21.46;100.00